Date,TemperatureHighF,TemperatureAvgF,TemperatureLowF,DewpointHighF,DewpointAvgF,DewpointLowF,HumidityHigh,HumidityAvg,HumidityLow,PressureMaxIn,PressureMinIn,WindSpeedMaxMPH,WindSpeedAvgMPH,GustSpeedMaxMPH,PrecipitationSumIn
2013-7-1,78,63,56,-100,-100,-100,0,0,100,0.00,40.00,0,-999,0,0.00
2013-7-2,79,62,54,-100,-100,-100,0,0,100,0.00,40.00,0,-999,0,0.00
2013-7-3,76,62,51,-100,-100,-100,0,0,100,0.00,40.00,0,-999,0,0.01
2013-7-4,74,64,54,-100,-100,-100,0,0,100,0.00,40.00,0,-999,0,0.01
2013-7-5,71,62,54,-100,-100,-100,0,0,100,0.00,40.00,0,-999,0,0.00
2013-7-6,71,59,53,-100,-100,-100,0,0,100,0.00,40.00,0,-999,0,0.00
2013-7-7,72,62,53,-100,-100,-100,0,0,100,0.00,40.00,0,-999,0,0.00
2013-7-8,69,57,50,-100,-100,-100,0,0,100,0.00,40.00,0,-999,0,0.00
2013-7-9,69,57,48,-100,-100,-100,0,0,100,0.00,40.00,0,-999,0,0.00
2013-7-10,69,59,47,-100,-100,-100,0,0,100,0.00,40.00,0,-999,0,0.00
2013-7-11,68,57,48,-100,-100,-100,0,0,100,0.00,40.00,0,-999,0,0.01
2013-7-12,67,54,45,-100,-100,-100,0,0,100,0.00,40.00,0,-999,0,0.01
2013-7-13,67,56,45,-100,-100,-100,0,0,100,0.00,40.00,0,-999,0,0.00
2013-7-14,70,58,47,-100,-100,-100,0,0,100,0.00,40.00,0,-999,0,0.00
2013-7-15,69,56,50,-100,-100,-100,0,0,100,0.00,40.00,0,-999,0,0.00
2013-7-16,67,56,48,-100,-100,-100,0,0,100,0.00,40.00,0,-999,0,0.00
2013-7-17,72,56,43,-100,-100,-100,0,0,100,0.00,40.00,0,-999,0,0.00
2013-7-18,77,63,48,-100,-100,-100,0,0,100,0.00,40.00,0,-999,0,1.24
2013-7-19,77,62,52,-100,-100,-100,0,0,100,0.00,40.00,0,-999,0,1.24
2013-7-20,80,65,54,-100,-100,-100,0,0,100,0.00,40.00,0,-999,0,0.00
2013-7-21,80,65,56,-100,-100,-100,0,0,100,0.00,40.00,0,-999,0,0.00
2013-7-22,75,61,52,-100,-100,-100,0,0,100,0.00,40.00,0,-999,0,0.00
2013-7-23,64,58,53,-100,-100,-100,0,0,100,0.00,40.00,0,-999,0,0.00
2013-7-24,69,60,50,-100,-100,-100,0,0,100,0.00,40.00,0,-999,0,0.01
2013-7-25,70,58,52,-100,-100,-100,0,0,100,0.00,40.00,0,-999,0,0.02
2013-7-26,70,59,51,-100,-100,-100,0,0,100,0.00,40.00,0,-999,0,0.02
2013-7-27,70,58,49,-100,-100,-100,0,0,100,0.00,40.00,0,-999,0,0.00
2013-7-28,67,57,49,-100,-100,-100,0,0,100,0.00,40.00,0,-999,0,0.00
2013-7-29,65,55,47,-100,-100,-100,0,0,100,0.00,40.00,0,-999,0,0.00
2013-7-30,67,57,46,-100,-100,-100,0,0,100,0.00,40.00,0,-999,0,0.00
2013-7-31,65,57,49,-100,-100,-100,0,0,100,0.00,40.00,0,-999,0,0.00